Time;durP1;ratioP1;P1;durP2;ratioP2;P2;SDS_P1;SDS_P2;PMS_P1;PMS_P2;Temp;Humidity;BMP_temperature;BMP_pressure;BME280_temperature;BME280_humidity;BME280_pressure;Samples;Min_cycle;Max_cycle;Signal;HPM_P1;HPM_P2
2021/07/02 00:00:03;;;;;;;;;;;20.50;62.50;;;;;;492060;240;1122;-43
2021/07/02 00:02:04;;;;;;;;;;;20.50;62.60;;;;;;491584;240;2141;-43
2021/07/02 00:04:05;;;;;;;;;;;20.50;62.50;;;;;;491577;240;1077;-43
2021/07/02 00:06:07;;;;;;;;;;;20.50;62.60;;;;;;491570;240;1300;-44
2021/07/02 00:08:08;;;;;;;;;;;20.50;62.60;;;;;;491542;240;1234;-44
2021/07/02 00:10:09;;;;;;;;;;;20.40;62.50;;;;;;491832;240;1164;-43
2021/07/02 00:12:11;;;;;;;;;;;20.50;62.50;;;;;;491988;240;1621;-43
2021/07/02 00:14:12;;;;;;;;;;;20.50;62.50;;;;;;491940;240;1286;-43
2021/07/02 00:16:13;;;;;;;;;;;20.50;62.60;;;;;;492031;240;1132;-43
2021/07/02 00:18:15;;;;;;;;;;;20.40;62.50;;;;;;492005;240;1179;-43
2021/07/02 00:20:16;;;;;;;;;;;20.40;62.60;;;;;;491758;240;1152;-43
2021/07/02 00:22:17;;;;;;;;;;;20.40;62.60;;;;;;491573;240;2204;-43
2021/07/02 00:24:19;;;;;;;;;;;20.50;62.50;;;;;;491848;240;1105;-43
2021/07/02 00:26:20;;;;;;;;;;;20.50;62.50;;;;;;491954;240;1056;-44
2021/07/02 00:28:22;;;;;;;;;;;20.50;62.50;;;;;;491620;240;1012;-43
2021/07/02 00:30:23;;;;;;;;;;;20.50;62.60;;;;;;491625;240;2166;-43
2021/07/02 00:32:24;;;;;;;;;;;20.40;62.60;;;;;;492055;240;1041;-43
2021/07/02 00:34:25;;;;;;;;;;;20.50;62.60;;;;;;491564;240;1076;-43
2021/07/02 00:36:26;;;;;;;;;;;20.50;62.50;;;;;;491654;240;1204;-43
2021/07/02 00:38:28;;;;;;;;;;;20.50;62.60;;;;;;491735;240;1097;-43
2021/07/02 00:40:29;;;;;;;;;;;20.40;62.50;;;;;;491601;240;1103;-43
2021/07/02 00:42:30;;;;;;;;;;;20.40;62.60;;;;;;491828;240;2216;-43
2021/07/02 00:44:32;;;;;;;;;;;20.40;62.60;;;;;;491762;240;1023;-43
2021/07/02 00:46:33;;;;;;;;;;;20.50;62.50;;;;;;491547;240;1079;-43
2021/07/02 00:48:34;;;;;;;;;;;20.40;62.50;;;;;;491569;240;1052;-44
2021/07/02 00:50:36;;;;;;;;;;;20.50;62.60;;;;;;491814;240;1159;-43
2021/07/02 00:52:37;;;;;;;;;;;20.50;62.60;;;;;;491594;240;1218;-44
2021/07/02 00:54:38;;;;;;;;;;;20.50;62.50;;;;;;491708;240;1095;-43
2021/07/02 00:56:40;;;;;;;;;;;20.40;62.50;;;;;;491786;240;1189;-43
2021/07/02 00:58:41;;;;;;;;;;;20.40;62.50;;;;;;491603;240;1063;-43
2021/07/02 01:00:42;;;;;;;;;;;20.50;62.60;;;;;;492029;240;1067;-43
2021/07/02 01:02:44;;;;;;;;;;;20.50;62.60;;;;;;492039;240;2199;-43
2021/07/02 01:04:45;;;;;;;;;;;20.50;62.50;;;;;;491787;240;1174;-43
2021/07/02 01:06:46;;;;;;;;;;;20.50;62.50;;;;;;491671;240;1196;-43
2021/07/02 01:08:48;;;;;;;;;;;20.40;62.50;;;;;;492037;240;1119;-43
2021/07/02 01:10:49;;;;;;;;;;;20.50;62.50;;;;;;491884;240;1192;-43
2021/07/02 01:12:50;;;;;;;;;;;20.50;62.50;;;;;;491601;240;1217;-43
2021/07/02 01:14:52;;;;;;;;;;;20.40;62.50;;;;;;492073;240;1058;-43
2021/07/02 01:16:53;;;;;;;;;;;20.50;62.60;;;;;;491754;240;1040;-44
2021/07/02 01:18:54;;;;;;;;;;;20.40;62.50;;;;;;491954;240;1155;-43
2021/07/02 01:20:56;;;;;;;;;;;20.40;62.60;;;;;;491743;240;1279;-43
2021/07/02 01:22:57;;;;;;;;;;;20.40;62.60;;;;;;491553;240;2215;-44
2021/07/02 01:24:58;;;;;;;;;;;20.40;62.60;;;;;;492058;240;1071;-43
2021/07/02 01:27:00;;;;;;;;;;;20.40;62.60;;;;;;491527;240;1111;-43
2021/07/02 01:29:01;;;;;;;;;;;20.40;62.50;;;;;;492026;240;1042;-43
2021/07/02 01:31:02;;;;;;;;;;;20.40;62.50;;;;;;492019;240;1414;-43
2021/07/02 01:33:04;;;;;;;;;;;20.50;62.50;;;;;;491576;240;1301;-43
2021/07/02 01:35:05;;;;;;;;;;;20.40;62.60;;;;;;491915;240;1043;-43
2021/07/02 01:37:08;;;;;;;;;;;20.40;62.60;;;;;;491634;240;1215;-44
2021/07/02 01:39:08;;;;;;;;;;;20.40;62.60;;;;;;491588;240;1403;-43
2021/07/02 01:41:09;;;;;;;;;;;20.40;62.60;;;;;;491562;240;1224;-43
2021/07/02 01:43:10;;;;;;;;;;;20.40;62.60;;;;;;491608;240;2188;-43
2021/07/02 01:45:12;;;;;;;;;;;20.40;62.60;;;;;;491661;240;1032;-43
2021/07/02 01:47:13;;;;;;;;;;;20.50;62.50;;;;;;491779;240;1186;-43
2021/07/02 01:49:14;;;;;;;;;;;20.40;62.50;;;;;;491842;240;1114;-43
2021/07/02 01:51:16;;;;;;;;;;;20.40;62.50;;;;;;491825;240;1135;-44
2021/07/02 01:53:17;;;;;;;;;;;20.40;62.50;;;;;;491763;240;1054;-43
2021/07/02 01:55:18;;;;;;;;;;;20.40;62.50;;;;;;491739;240;1069;-43
2021/07/02 01:57:20;;;;;;;;;;;20.40;62.50;;;;;;491635;240;1030;-43
2021/07/02 01:59:21;;;;;;;;;;;20.40;62.50;;;;;;492058;240;1043;-43
2021/07/02 02:01:23;;;;;;;;;;;20.40;62.60;;;;;;491532;240;1034;-43
2021/07/02 02:03:24;;;;;;;;;;;20.40;62.50;;;;;;491990;240;2148;-43
2021/07/02 02:05:25;;;;;;;;;;;20.40;62.70;;;;;;492020;240;1060;-44
2021/07/02 02:07:26;;;;;;;;;;;20.40;62.60;;;;;;491574;240;1160;-43
2021/07/02 02:09:28;;;;;;;;;;;20.40;62.60;;;;;;491661;240;1095;-44
2021/07/02 02:11:29;;;;;;;;;;;20.40;62.50;;;;;;491557;240;1168;-44
2021/07/02 02:13:30;;;;;;;;;;;20.40;62.50;;;;;;491679;240;1063;-43
2021/07/02 02:15:32;;;;;;;;;;;20.40;62.50;;;;;;491556;240;1049;-43
2021/07/02 02:17:33;;;;;;;;;;;20.40;62.60;;;;;;491996;240;1032;-44
2021/07/02 02:19:34;;;;;;;;;;;20.40;62.60;;;;;;491915;240;1079;-43
2021/07/02 02:21:36;;;;;;;;;;;20.40;62.60;;;;;;491814;240;1331;-44
2021/07/02 02:23:37;;;;;;;;;;;20.40;62.60;;;;;;492096;240;2192;-44
2021/07/02 02:25:38;;;;;;;;;;;20.40;62.70;;;;;;491818;240;1140;-43
2021/07/02 02:27:39;;;;;;;;;;;20.40;62.70;;;;;;491792;240;1281;-44
2021/07/02 02:29:41;;;;;;;;;;;20.40;62.50;;;;;;492109;240;1040;-44
2021/07/02 02:31:42;;;;;;;;;;;20.40;62.50;;;;;;491665;240;1624;-44
2021/07/02 02:33:43;;;;;;;;;;;20.40;62.50;;;;;;492041;240;1087;-43
2021/07/02 02:35:45;;;;;;;;;;;20.50;62.60;;;;;;491584;240;1142;-43
2021/07/02 02:37:46;;;;;;;;;;;20.40;62.50;;;;;;491692;240;1175;-43
2021/07/02 02:39:47;;;;;;;;;;;20.40;62.50;;;;;;492082;240;1083;-43
2021/07/02 02:41:49;;;;;;;;;;;20.40;62.50;;;;;;491827;240;1047;-43
2021/07/02 02:43:50;;;;;;;;;;;20.40;62.40;;;;;;492051;240;2172;-43
2021/07/02 02:45:51;;;;;;;;;;;20.40;62.50;;;;;;491966;240;1096;-44
2021/07/02 02:47:53;;;;;;;;;;;20.40;62.60;;;;;;491762;240;1120;-43
2021/07/02 02:49:54;;;;;;;;;;;20.40;62.60;;;;;;491829;240;1028;-43
2021/07/02 02:51:55;;;;;;;;;;;20.40;62.60;;;;;;491705;240;1372;-43
2021/07/02 02:53:57;;;;;;;;;;;20.40;62.60;;;;;;491636;240;1043;-43
2021/07/02 02:55:58;;;;;;;;;;;20.40;62.60;;;;;;491646;240;1160;-43
2021/07/02 02:57:59;;;;;;;;;;;20.40;62.50;;;;;;491576;240;1241;-43
2021/07/02 03:00:01;;;;;;;;;;;20.40;62.50;;;;;;491605;240;1406;-43
2021/07/02 03:02:02;;;;;;;;;;;20.40;62.50;;;;;;491983;240;1075;-44
2021/07/02 03:04:03;;;;;;;;;;;20.40;62.50;;;;;;491704;240;2121;-44
2021/07/02 03:06:05;;;;;;;;;;;20.40;62.50;;;;;;492061;240;1041;-43
2021/07/02 03:08:06;;;;;;;;;;;20.40;62.40;;;;;;491588;240;1174;-43
2021/07/02 03:10:07;;;;;;;;;;;20.40;62.50;;;;;;491759;240;1033;-44
2021/07/02 03:12:08;;;;;;;;;;;20.50;62.50;;;;;;491510;240;1047;-44
2021/07/02 03:14:10;;;;;;;;;;;20.40;62.40;;;;;;491659;240;1221;-43
2021/07/02 03:16:11;;;;;;;;;;;20.40;62.60;;;;;;491804;240;1027;-43
2021/07/02 03:18:13;;;;;;;;;;;20.40;62.60;;;;;;491607;240;1025;-43
2021/07/02 03:20:14;;;;;;;;;;;20.40;62.50;;;;;;492107;240;1098;-43
2021/07/02 03:22:15;;;;;;;;;;;20.50;62.60;;;;;;491810;240;1255;-43
2021/07/02 03:24:16;;;;;;;;;;;20.40;62.50;;;;;;491741;240;2121;-44
2021/07/02 03:26:18;;;;;;;;;;;20.40;62.50;;;;;;491509;240;1129;-44
2021/07/02 03:28:19;;;;;;;;;;;20.40;62.40;;;;;;492057;240;1105;-43
2021/07/02 03:30:20;;;;;;;;;;;20.40;62.50;;;;;;491711;240;1076;-44
2021/07/02 03:32:22;;;;;;;;;;;20.40;62.50;;;;;;491755;240;1117;-43
2021/07/02 03:34:23;;;;;;;;;;;20.50;62.50;;;;;;492085;240;1051;-43
2021/07/02 03:36:24;;;;;;;;;;;20.40;62.40;;;;;;491562;240;1295;-43
2021/07/02 03:38:26;;;;;;;;;;;20.40;62.50;;;;;;491669;240;1170;-43
2021/07/02 03:40:27;;;;;;;;;;;20.40;62.50;;;;;;491516;240;1153;-43
2021/07/02 03:42:28;;;;;;;;;;;20.40;62.60;;;;;;491939;240;2144;-43
2021/07/02 03:44:30;;;;;;;;;;;20.40;62.50;;;;;;491790;240;1070;-44
2021/07/02 03:46:31;;;;;;;;;;;20.40;62.50;;;;;;491838;240;1170;-43
2021/07/02 03:48:32;;;;;;;;;;;20.40;62.40;;;;;;491645;240;1057;-44
2021/07/02 03:50:34;;;;;;;;;;;20.40;62.40;;;;;;492031;240;1202;-43
2021/07/02 03:52:35;;;;;;;;;;;20.40;62.40;;;;;;491878;240;1310;-43
2021/07/02 03:54:36;;;;;;;;;;;20.40;62.50;;;;;;492074;240;1047;-43
2021/07/02 03:56:39;;;;;;;;;;;20.40;62.50;;;;;;491650;240;1049;-43
2021/07/02 03:58:39;;;;;;;;;;;20.40;62.50;;;;;;491603;240;2438;-43
2021/07/02 04:00:40;;;;;;;;;;;20.40;62.40;;;;;;492037;240;1051;-43
2021/07/02 04:02:42;;;;;;;;;;;20.40;62.40;;;;;;491499;240;2192;-43
2021/07/02 04:04:43;;;;;;;;;;;20.40;62.50;;;;;;492036;240;1219;-43
2021/07/02 04:06:45;;;;;;;;;;;20.40;62.50;;;;;;491858;240;1039;-43
2021/07/02 04:08:47;;;;;;;;;;;20.40;62.40;;;;;;491631;240;1174;-44
2021/07/02 04:10:48;;;;;;;;;;;20.40;62.40;;;;;;491784;240;1133;-43
2021/07/02 04:12:50;;;;;;;;;;;20.40;62.50;;;;;;491535;240;1079;-43
2021/07/02 04:14:51;;;;;;;;;;;20.40;62.40;;;;;;491983;240;1044;-43
2021/07/02 04:16:52;;;;;;;;;;;20.50;62.40;;;;;;491821;240;1113;-43
2021/07/02 04:18:53;;;;;;;;;;;20.40;62.40;;;;;;491699;240;1019;-44
2021/07/02 04:20:55;;;;;;;;;;;20.40;62.40;;;;;;492041;240;1052;-43
2021/07/02 04:22:56;;;;;;;;;;;20.40;62.50;;;;;;491541;240;2152;-43
2021/07/02 04:24:57;;;;;;;;;;;20.40;62.40;;;;;;492043;240;1054;-43
2021/07/02 04:26:59;;;;;;;;;;;20.40;62.40;;;;;;491639;240;1022;-44
2021/07/02 04:29:00;;;;;;;;;;;20.40;62.50;;;;;;491556;240;1074;-43
2021/07/02 04:31:01;;;;;;;;;;;20.40;62.50;;;;;;491561;240;1068;-44
2021/07/02 04:33:03;;;;;;;;;;;20.40;62.50;;;;;;491459;240;1033;-44
2021/07/02 04:35:04;;;;;;;;;;;20.40;62.60;;;;;;491507;240;1105;-43
2021/07/02 04:37:05;;;;;;;;;;;20.40;62.60;;;;;;491429;240;1068;-43
2021/07/02 04:39:07;;;;;;;;;;;20.40;62.60;;;;;;491488;240;1178;-43
2021/07/02 04:41:08;;;;;;;;;;;20.40;62.50;;;;;;491887;240;1046;-43
2021/07/02 04:43:09;;;;;;;;;;;20.40;62.50;;;;;;491485;240;2184;-43
2021/07/02 04:45:11;;;;;;;;;;;20.40;62.50;;;;;;491709;240;1035;-44
2021/07/02 04:47:12;;;;;;;;;;;20.40;62.40;;;;;;491497;240;1068;-44
2021/07/02 04:49:13;;;;;;;;;;;20.40;62.50;;;;;;491398;240;1062;-43
2021/07/02 04:51:15;;;;;;;;;;;20.40;62.40;;;;;;491747;240;1366;-43
2021/07/02 04:53:18;;;;;;;;;;;20.40;62.40;;;;;;491617;240;1189;-43
2021/07/02 04:55:17;;;;;;;;;;;20.40;62.40;;;;;;491524;240;2688;-43
2021/07/02 04:57:19;;;;;;;;;;;20.40;62.40;;;;;;491485;240;1359;-43
2021/07/02 04:59:26;;;;;;;;;;;20.40;62.50;;;;;;491397;240;1083;-43
2021/07/02 05:01:21;;;;;;;;;;;20.40;62.50;;;;;;491361;240;2116;-43
2021/07/02 05:03:23;;;;;;;;;;;20.40;62.50;;;;;;491643;240;2149;-44
2021/07/02 05:05:24;;;;;;;;;;;20.40;62.40;;;;;;491490;240;1070;-43
2021/07/02 05:07:25;;;;;;;;;;;20.40;62.40;;;;;;491570;240;1152;-43
2021/07/02 05:09:27;;;;;;;;;;;20.40;62.40;;;;;;491615;240;1397;-43
2021/07/02 05:11:28;;;;;;;;;;;20.40;62.50;;;;;;491396;240;1268;-43
2021/07/02 05:13:29;;;;;;;;;;;20.40;62.50;;;;;;491564;240;1217;-43
2021/07/02 05:15:30;;;;;;;;;;;20.40;62.50;;;;;;491742;240;1085;-43
2021/07/02 05:17:32;;;;;;;;;;;20.40;62.50;;;;;;491255;240;1207;-43
2021/07/02 05:19:33;;;;;;;;;;;20.40;62.40;;;;;;491412;240;1049;-43
2021/07/02 05:21:34;;;;;;;;;;;20.40;62.40;;;;;;491482;240;1100;-43
2021/07/02 05:23:36;;;;;;;;;;;20.40;62.60;;;;;;491327;240;2169;-43
2021/07/02 05:25:38;;;;;;;;;;;20.40;62.50;;;;;;491470;240;1041;-43
2021/07/02 05:27:39;;;;;;;;;;;20.40;62.50;;;;;;491475;240;1061;-44
2021/07/02 05:29:40;;;;;;;;;;;20.40;62.50;;;;;;491398;240;1078;-43
2021/07/02 05:31:41;;;;;;;;;;;20.40;62.60;;;;;;491383;240;1081;-44
2021/07/02 05:33:43;;;;;;;;;;;20.40;62.50;;;;;;491299;240;1088;-44
2021/07/02 05:35:44;;;;;;;;;;;20.40;62.60;;;;;;491264;240;1042;-43
2021/07/02 05:37:45;;;;;;;;;;;20.40;62.40;;;;;;491480;240;1109;-43
2021/07/02 05:39:47;;;;;;;;;;;20.40;62.50;;;;;;491187;240;1295;-44
2021/07/02 05:41:48;;;;;;;;;;;20.40;62.60;;;;;;491227;240;1216;-44
2021/07/02 05:43:49;;;;;;;;;;;20.40;62.50;;;;;;491156;240;2137;-43
2021/07/02 05:45:51;;;;;;;;;;;20.40;62.50;;;;;;491189;240;1059;-43
2021/07/02 05:47:58;;;;;;;;;;;20.40;62.50;;;;;;491276;240;1459;-44
2021/07/02 05:49:53;;;;;;;;;;;20.40;62.40;;;;;;491278;240;2146;-43
2021/07/02 05:51:55;;;;;;;;;;;20.40;62.50;;;;;;491224;240;1183;-43
2021/07/02 05:53:56;;;;;;;;;;;20.40;62.50;;;;;;491255;240;1169;-43
2021/07/02 05:55:58;;;;;;;;;;;20.40;62.40;;;;;;491234;240;1220;-44
2021/07/02 05:58:00;;;;;;;;;;;20.40;62.60;;;;;;491192;240;1305;-44
2021/07/02 06:00:00;;;;;;;;;;;20.40;62.60;;;;;;491314;240;2196;-43
2021/07/02 06:02:02;;;;;;;;;;;20.40;62.50;;;;;;491082;240;1202;-43
2021/07/02 06:04:03;;;;;;;;;;;20.40;62.50;;;;;;491362;240;2142;-43
2021/07/02 06:06:04;;;;;;;;;;;20.40;62.40;;;;;;491197;240;1231;-43
2021/07/02 06:08:06;;;;;;;;;;;20.40;62.50;;;;;;491077;240;1153;-43
2021/07/02 06:10:07;;;;;;;;;;;20.40;62.50;;;;;;491143;240;1220;-43
2021/07/02 06:12:08;;;;;;;;;;;20.40;62.40;;;;;;491137;240;1273;-43
2021/07/02 06:14:10;;;;;;;;;;;20.40;62.50;;;;;;491097;240;1065;-44
2021/07/02 06:16:11;;;;;;;;;;;20.40;62.40;;;;;;491025;240;1250;-43
2021/07/02 06:18:12;;;;;;;;;;;20.40;62.40;;;;;;491014;240;1113;-44
2021/07/02 06:20:13;;;;;;;;;;;20.40;62.40;;;;;;491052;240;1290;-44
2021/07/02 06:22:15;;;;;;;;;;;20.40;62.40;;;;;;491008;240;1185;-43
2021/07/02 06:24:16;;;;;;;;;;;20.40;62.40;;;;;;491124;240;2183;-43
2021/07/02 06:26:17;;;;;;;;;;;20.40;62.50;;;;;;491135;240;1249;-43
2021/07/02 06:28:19;;;;;;;;;;;20.40;62.40;;;;;;491007;240;1137;-43
2021/07/02 06:30:20;;;;;;;;;;;20.40;62.40;;;;;;491054;240;1393;-43
2021/07/02 06:32:21;;;;;;;;;;;20.40;62.30;;;;;;491111;240;1222;-46
2021/07/02 06:34:23;;;;;;;;;;;20.50;62.30;;;;;;491196;240;1087;-46
2021/07/02 06:36:24;;;;;;;;;;;20.50;62.30;;;;;;491137;240;1244;-46
2021/07/02 06:38:25;;;;;;;;;;;20.50;62.40;;;;;;491126;240;1142;-43
2021/07/02 06:40:27;;;;;;;;;;;20.50;62.20;;;;;;491140;240;1213;-43
2021/07/02 06:42:28;;;;;;;;;;;20.50;62.20;;;;;;491029;240;1230;-43
2021/07/02 06:44:29;;;;;;;;;;;20.50;62.20;;;;;;491179;240;2187;-44
2021/07/02 06:46:33;;;;;;;;;;;20.50;62.20;;;;;;491207;240;1073;-43
2021/07/02 06:48:32;;;;;;;;;;;20.50;62.10;;;;;;490944;240;1879;-42
2021/07/02 06:50:34;;;;;;;;;;;20.50;62.20;;;;;;491010;240;1219;-44
2021/07/02 06:52:35;;;;;;;;;;;20.50;62.30;;;;;;490809;240;1190;-43
2021/07/02 06:54:37;;;;;;;;;;;20.50;62.30;;;;;;490931;240;1358;-43
2021/07/02 06:56:59;;;;;;;;;;;20.40;62.30;;;;;;490841;240;1338;-43
2021/07/02 06:58:39;;;;;;;;;;;20.40;62.30;;;;;;491167;240;1174;-43
2021/07/02 07:00:40;;;;;;;;;;;20.40;62.40;;;;;;491070;240;1528;-43
2021/07/02 07:02:42;;;;;;;;;;;20.40;62.40;;;;;;490686;240;1228;-43
2021/07/02 07:04:43;;;;;;;;;;;20.40;62.40;;;;;;490908;240;2137;-43
2021/07/02 07:06:44;;;;;;;;;;;20.40;62.50;;;;;;490759;240;1347;-43
2021/07/02 07:08:46;;;;;;;;;;;20.40;62.50;;;;;;490819;240;1323;-43
2021/07/02 07:10:47;;;;;;;;;;;20.40;62.40;;;;;;491015;240;1717;-43
2021/07/02 07:12:49;;;;;;;;;;;20.50;62.30;;;;;;490994;240;1262;-44
2021/07/02 07:14:50;;;;;;;;;;;20.50;62.10;;;;;;490954;240;1067;-43
2021/07/02 07:16:51;;;;;;;;;;;20.50;62.10;;;;;;490825;240;1259;-44
2021/07/02 07:18:53;;;;;;;;;;;20.50;62.10;;;;;;490164;240;1083;-44
2021/07/02 07:20:54;;;;;;;;;;;20.50;62.10;;;;;;490917;240;1290;-43
2021/07/02 07:22:55;;;;;;;;;;;20.50;62.10;;;;;;491127;240;1245;-43
2021/07/02 07:24:57;;;;;;;;;;;20.50;62.00;;;;;;490853;240;2148;-43
2021/07/02 07:26:58;;;;;;;;;;;20.50;62.00;;;;;;490756;240;1252;-43
2021/07/02 07:29:00;;;;;;;;;;;20.50;62.00;;;;;;490806;240;1146;-43
2021/07/02 07:31:01;;;;;;;;;;;20.60;62.00;;;;;;491046;240;1235;-43
2021/07/02 07:33:02;;;;;;;;;;;20.60;62.00;;;;;;491007;240;1293;-43
2021/07/02 07:35:05;;;;;;;;;;;20.60;62.00;;;;;;491018;240;1142;-44
2021/07/02 07:37:07;;;;;;;;;;;20.50;62.00;;;;;;490206;240;2655;-43
2021/07/02 07:39:06;;;;;;;;;;;20.60;62.00;;;;;;490839;240;2004;-44
2021/07/02 07:41:07;;;;;;;;;;;20.60;61.90;;;;;;490990;240;1262;-44
2021/07/02 07:43:09;;;;;;;;;;;20.60;61.90;;;;;;490996;240;1228;-43
2021/07/02 07:45:10;;;;;;;;;;;20.60;61.80;;;;;;491271;240;2179;-43
2021/07/02 07:47:12;;;;;;;;;;;20.60;61.60;;;;;;491016;240;1156;-43
2021/07/02 07:49:13;;;;;;;;;;;20.70;61.50;;;;;;491685;240;875;-43
2021/07/02 07:51:18;;;;;;;;;;;20.70;61.50;;;;;;490840;240;1270;-43
2021/07/02 07:53:17;;;;;;;;;;;20.70;61.50;;;;;;490895;240;2588;-43
2021/07/02 07:55:18;;;;;;;;;;;20.70;61.40;;;;;;490968;240;1306;-44
2021/07/02 07:57:20;;;;;;;;;;;20.80;61.40;;;;;;490811;240;1208;-43
2021/07/02 07:59:21;;;;;;;;;;;20.70;61.30;;;;;;490817;240;1096;-43
2021/07/02 08:01:22;;;;;;;;;;;20.70;61.40;;;;;;490782;240;1236;-44
2021/07/02 08:03:24;;;;;;;;;;;20.70;61.30;;;;;;491088;240;1335;-43
2021/07/02 08:05:25;;;;;;;;;;;20.80;61.30;;;;;;490838;240;2195;-44
2021/07/02 08:07:26;;;;;;;;;;;20.80;61.30;;;;;;491642;240;1079;-43
2021/07/02 08:09:29;;;;;;;;;;;20.80;61.30;;;;;;490786;240;1211;-44
2021/07/02 08:11:29;;;;;;;;;;;20.80;61.30;;;;;;490717;240;2016;-43
2021/07/02 08:13:30;;;;;;;;;;;20.80;61.30;;;;;;491001;240;1470;-43
2021/07/02 08:15:32;;;;;;;;;;;20.80;61.30;;;;;;491052;240;1338;-43
2021/07/02 08:17:33;;;;;;;;;;;20.70;61.30;;;;;;490705;240;1208;-44
2021/07/02 08:19:34;;;;;;;;;;;20.70;61.40;;;;;;490971;240;1112;-43
2021/07/02 08:21:36;;;;;;;;;;;20.70;61.40;;;;;;490721;240;1404;-43
2021/07/02 08:23:37;;;;;;;;;;;20.70;61.50;;;;;;490819;240;1110;-43
2021/07/02 08:25:38;;;;;;;;;;;20.60;61.60;;;;;;490681;240;2180;-43
2021/07/02 08:30:13;;;;;;;;;;;20.60;61.80;;;;;;486762;241;1249;-43
2021/07/02 08:32:14;;;;;;;;;;;20.60;61.80;;;;;;490766;240;1097;-44
2021/07/02 08:34:15;;;;;;;;;;;20.60;61.90;;;;;;490651;240;1121;-44
2021/07/02 08:36:17;;;;;;;;;;;20.60;62.00;;;;;;490691;240;1133;-43
2021/07/02 08:38:18;;;;;;;;;;;20.60;62.00;;;;;;490596;240;1121;-43
2021/07/02 08:40:20;;;;;;;;;;;20.60;62.00;;;;;;490677;240;1147;-44
2021/07/02 08:42:21;;;;;;;;;;;20.50;62.00;;;;;;490615;240;1175;-44
2021/07/02 08:44:22;;;;;;;;;;;20.60;62.10;;;;;;490644;240;2486;-43
2021/07/02 08:46:23;;;;;;;;;;;20.50;62.00;;;;;;490699;240;1322;-43
2021/07/02 08:48:25;;;;;;;;;;;20.50;62.10;;;;;;490784;240;1179;-43
2021/07/02 08:50:27;;;;;;;;;;;20.50;62.20;;;;;;490654;240;1123;-43
2021/07/02 08:52:28;;;;;;;;;;;20.50;62.20;;;;;;490633;240;1200;-44
2021/07/02 08:54:29;;;;;;;;;;;20.50;62.20;;;;;;490833;240;1177;-44
2021/07/02 08:56:30;;;;;;;;;;;20.50;62.10;;;;;;490777;240;1243;-43
2021/07/02 08:58:32;;;;;;;;;;;20.50;62.20;;;;;;490779;240;1140;-43
2021/07/02 09:00:33;;;;;;;;;;;20.50;62.20;;;;;;490726;240;1218;-44
2021/07/02 09:02:36;;;;;;;;;;;20.50;62.20;;;;;;490840;240;1515;-44
2021/07/02 09:04:39;;;;;;;;;;;20.50;62.20;;;;;;491000;240;2173;-43
2021/07/02 09:06:38;;;;;;;;;;;20.50;62.20;;;;;;490864;240;1973;-43
2021/07/02 09:08:39;;;;;;;;;;;20.50;62.20;;;;;;490908;240;1114;-44
2021/07/02 09:10:40;;;;;;;;;;;20.50;62.20;;;;;;490820;240;1285;-43
2021/07/02 09:12:42;;;;;;;;;;;20.50;62.30;;;;;;490986;240;1297;-43
2021/07/02 09:14:43;;;;;;;;;;;20.50;62.30;;;;;;491329;240;1102;-44
2021/07/02 09:16:48;;;;;;;;;;;20.50;62.30;;;;;;490819;240;1294;-43
2021/07/02 09:18:46;;;;;;;;;;;20.50;62.30;;;;;;490806;240;1253;-43
2021/07/02 09:20:47;;;;;;;;;;;20.50;62.20;;;;;;490966;240;1179;-44
2021/07/02 09:22:49;;;;;;;;;;;20.50;62.30;;;;;;490899;240;1066;-44
2021/07/02 09:24:51;;;;;;;;;;;20.50;62.20;;;;;;490841;240;2129;-44
2021/07/02 09:26:51;;;;;;;;;;;20.50;62.30;;;;;;490683;240;2157;-43
2021/07/02 09:28:52;;;;;;;;;;;20.40;62.30;;;;;;490773;240;1144;-43
2021/07/02 09:30:54;;;;;;;;;;;20.40;62.30;;;;;;491062;240;1085;-43
2021/07/02 09:32:55;;;;;;;;;;;20.40;62.30;;;;;;490910;240;1216;-43
2021/07/02 09:34:58;;;;;;;;;;;20.40;62.30;;;;;;490913;240;1167;-44
2021/07/02 09:36:58;;;;;;;;;;;20.50;62.30;;;;;;490950;240;2125;-43
2021/07/02 09:38:59;;;;;;;;;;;20.50;62.30;;;;;;490921;240;1100;-43
2021/07/02 09:41:00;;;;;;;;;;;20.40;62.30;;;;;;490862;240;1206;-43
2021/07/02 09:43:02;;;;;;;;;;;20.50;62.30;;;;;;490770;240;1183;-43
2021/07/02 09:45:03;;;;;;;;;;;20.40;62.30;;;;;;490871;240;2191;-43
2021/07/02 09:47:06;;;;;;;;;;;20.50;62.30;;;;;;490743;240;1184;-43
2021/07/02 09:49:06;;;;;;;;;;;20.50;62.30;;;;;;491162;240;2192;-44
2021/07/02 09:51:09;;;;;;;;;;;20.50;62.30;;;;;;490966;240;1150;-44
2021/07/02 09:53:10;;;;;;;;;;;20.40;62.20;;;;;;491123;240;2080;-44
2021/07/02 09:55:10;;;;;;;;;;;20.40;62.30;;;;;;491107;240;1185;-43
2021/07/02 09:57:12;;;;;;;;;;;20.50;62.30;;;;;;490901;240;1190;-44
2021/07/02 09:59:13;;;;;;;;;;;20.50;62.30;;;;;;490962;240;1253;-43
2021/07/02 10:01:15;;;;;;;;;;;20.50;62.30;;;;;;490963;240;1281;-43
2021/07/02 10:03:16;;;;;;;;;;;20.50;62.30;;;;;;491080;240;1155;-43
2021/07/02 10:05:17;;;;;;;;;;;20.50;62.30;;;;;;490928;240;2180;-43
2021/07/02 10:07:18;;;;;;;;;;;20.50;62.30;;;;;;490975;240;1363;-43
2021/07/02 10:09:20;;;;;;;;;;;20.50;62.30;;;;;;490714;240;1408;-43
2021/07/02 10:11:23;;;;;;;;;;;20.40;62.30;;;;;;490930;240;1327;-43
2021/07/02 10:13:23;;;;;;;;;;;20.50;62.30;;;;;;490961;240;2112;-43
2021/07/02 10:15:24;;;;;;;;;;;20.50;62.40;;;;;;490940;240;1201;-43
2021/07/02 10:17:25;;;;;;;;;;;20.50;62.30;;;;;;491028;240;1179;-43
2021/07/02 10:19:27;;;;;;;;;;;20.40;62.30;;;;;;490975;240;1287;-43
2021/07/02 10:21:28;;;;;;;;;;;20.50;62.30;;;;;;491037;240;1315;-43
2021/07/02 10:23:29;;;;;;;;;;;20.40;62.30;;;;;;491089;240;1228;-44
2021/07/02 10:25:31;;;;;;;;;;;20.40;62.30;;;;;;491009;240;2179;-44
2021/07/02 10:27:32;;;;;;;;;;;20.50;62.40;;;;;;491093;240;1188;-43
2021/07/02 10:29:33;;;;;;;;;;;20.40;62.30;;;;;;491001;240;1100;-43
2021/07/02 10:31:34;;;;;;;;;;;20.40;62.30;;;;;;490887;240;1154;-43
2021/07/02 10:33:36;;;;;;;;;;;20.50;62.30;;;;;;490883;240;1279;-43
2021/07/02 10:35:40;;;;;;;;;;;20.50;62.30;;;;;;491000;240;1056;-44
2021/07/02 10:37:38;;;;;;;;;;;20.50;62.30;;;;;;490975;240;2256;-43
2021/07/02 10:39:45;;;;;;;;;;;20.40;62.30;;;;;;491170;240;1160;-43
2021/07/02 10:41:41;;;;;;;;;;;20.40;62.30;;;;;;490872;240;1873;-43
2021/07/02 10:43:42;;;;;;;;;;;20.40;62.30;;;;;;490785;240;1111;-44
2021/07/02 10:45:44;;;;;;;;;;;20.40;62.30;;;;;;490831;240;2192;-43
2021/07/02 10:47:45;;;;;;;;;;;20.50;62.30;;;;;;490786;240;1229;-43
2021/07/02 10:49:47;;;;;;;;;;;20.50;62.20;;;;;;491010;240;1109;-43
2021/07/02 10:51:48;;;;;;;;;;;20.50;62.30;;;;;;490859;240;1628;-44
2021/07/02 10:53:49;;;;;;;;;;;20.40;62.30;;;;;;490936;241;1860;-44
2021/07/02 10:55:50;;;;;;;;;;;20.50;62.30;;;;;;490794;240;1102;-43
2021/07/02 10:57:52;;;;;;;;;;;20.40;62.30;;;;;;490831;240;1135;-43
2021/07/02 10:59:53;;;;;;;;;;;20.40;62.30;;;;;;490795;240;1089;-44
2021/07/02 11:01:55;;;;;;;;;;;20.50;62.30;;;;;;490941;240;1335;-43
2021/07/02 11:03:56;;;;;;;;;;;20.40;62.30;;;;;;491045;240;1088;-43
2021/07/02 11:05:57;;;;;;;;;;;20.50;62.20;;;;;;490974;240;2152;-43
2021/07/02 11:08:00;;;;;;;;;;;20.40;62.30;;;;;;490923;240;1225;-43
2021/07/02 11:10:01;;;;;;;;;;;20.40;62.30;;;;;;490952;240;1072;-43
2021/07/02 11:12:02;;;;;;;;;;;20.50;62.30;;;;;;491111;240;1191;-43
2021/07/02 11:14:03;;;;;;;;;;;20.50;62.30;;;;;;491014;240;1204;-43
2021/07/02 11:16:07;;;;;;;;;;;20.40;62.30;;;;;;490991;240;1244;-43
2021/07/02 11:18:06;;;;;;;;;;;20.50;62.30;;;;;;491101;240;2032;-43
2021/07/02 11:20:08;;;;;;;;;;;20.40;62.30;;;;;;491037;240;1155;-43
2021/07/02 11:22:09;;;;;;;;;;;20.40;62.40;;;;;;491022;240;1222;-43
2021/07/02 11:24:10;;;;;;;;;;;20.40;62.40;;;;;;491017;240;1048;-43
2021/07/02 11:26:14;;;;;;;;;;;20.40;62.20;;;;;;491062;240;2152;-46
2021/07/02 11:28:16;;;;;;;;;;;20.50;62.30;;;;;;491025;240;2192;-43
2021/07/02 11:30:17;;;;;;;;;;;20.40;62.30;;;;;;490910;240;2308;-43
2021/07/02 11:32:16;;;;;;;;;;;20.40;62.30;;;;;;490772;240;2159;-43
2021/07/02 11:34:20;;;;;;;;;;;20.40;62.30;;;;;;490750;240;1106;-43
2021/07/02 11:38:57;;;;;;;;;;;20.50;62.30;;;;;;490899;242;1079;-43
2021/07/02 11:40:58;;;;;;;;;;;20.40;62.30;;;;;;490847;240;1091;-44
2021/07/02 11:43:00;;;;;;;;;;;20.40;62.40;;;;;;490349;240;1562;-43
2021/07/02 11:45:01;;;;;;;;;;;20.40;62.30;;;;;;490786;240;1383;-43
2021/07/02 11:47:02;;;;;;;;;;;20.40;62.30;;;;;;490908;240;2196;-43
2021/07/02 11:49:03;;;;;;;;;;;20.40;62.30;;;;;;491049;240;1053;-44
2021/07/02 11:51:05;;;;;;;;;;;20.40;62.40;;;;;;491019;240;1179;-43
2021/07/02 11:53:06;;;;;;;;;;;20.40;62.30;;;;;;491240;240;1221;-43
2021/07/02 11:55:07;;;;;;;;;;;20.40;62.40;;;;;;491010;240;1078;-43
2021/07/02 11:57:09;;;;;;;;;;;20.40;62.40;;;;;;491025;240;1203;-44
2021/07/02 11:59:11;;;;;;;;;;;20.40;62.40;;;;;;490730;240;1180;-43
2021/07/02 12:01:12;;;;;;;;;;;20.40;62.30;;;;;;490793;240;2114;-43